This is the latest recevied weather packets stored in our database for station/object VK5GR-12. If no packets are shown the sender has not sent any weather packets the latest 10 day(s).
| Time | Temp. | Humidity | Pressure | Rain* | Wind** | Luminosity | Snow |
|---|---|---|---|---|---|---|---|
| 1777796694 | 15.56° C | 76% | 1011.1 hPa | 0 mm | - | 0 W/m² | - |
| 1777795794 | 15.56° C | 77% | 1010.9 hPa | 0 mm | - | 1 W/m² | - |
| 1777793990 | 15.56° C | 77% | 1010.6 hPa | 0 mm | - | 17 W/m² | - |
| 1777793088 | 15.56° C | 78% | 1010.8 hPa | 0 mm | - | 26 W/m² | - |
| 1777792184 | 15.56° C | 76% | 1010.9 hPa | 0 mm | - | 61 W/m² | - |
| 1777791282 | 15.56° C | 81% | 1010.8 hPa | 0 mm | - | 87 W/m² | - |
| 1777790380 | 14.44° C | 89% | 1010.8 hPa | 1.27 mm | - | 86 W/m² | - |
| 1777789480 | 13.89° C | 89% | 1011.1 hPa | 0 mm | - | 87 W/m² | - |
| 1777788576 | 14.44° C | 83% | 1010.8 hPa | 0 mm | - | 37 W/m² | - |
| 1777787672 | 16.67° C | 68% | 1010.5 hPa | 0 mm | - | 57 W/m² | - |
| 1777786768 | 17.22° C | 64% | 1010.6 hPa | 0 mm | - | 160 W/m² | - |
| 1777785865 | 18.33° C | 59% | 1010.3 hPa | 0 mm | - | 142 W/m² | - |
| 1777784960 | 18.33° C | 61% | 1010.2 hPa | 0 mm | - | 373 W/m² | - |
| 1777784057 | 18.89° C | 59% | 1010.3 hPa | 0 mm | - | 320 W/m² | - |
| 1777783154 | 17.22° C | 63% | 1010.2 hPa | 0 mm | - | 568 W/m² | - |
| 1777782249 | 17.78° C | 63% | 1010.2 hPa | 0 mm | - | 279 W/m² | - |
| 1777781345 | 18.33° C | 63% | 1010.3 hPa | 0 mm | - | 207 W/m² | - |
| 1777780442 | 17.78° C | 62% | 1010.4 hPa | 0 mm | - | 203 W/m² | - |
| 1777779540 | 17.78° C | 65% | 1010.6 hPa | 0 mm | - | 397 W/m² | - |
| 1777778640 | 17.78° C | 65% | 1010.9 hPa | 0 mm | - | 509 W/m² | - |
| 1777777736 | 16.11° C | 75% | 1010.7 hPa | 0 mm | - | 570 W/m² | - |
| 1777776833 | 16.67° C | 68% | 1010.7 hPa | 0 mm | - | 117 W/m² | - |
| 1777775929 | 17.22° C | 68% | 1011 hPa | 0 mm | - | 237 W/m² | - |
| 1777775029 | 16.11° C | 71% | 1011.1 hPa | 0 mm | - | 126 W/m² | - |
| 1777774126 | 17.22° C | 66% | 1011 hPa | 0 mm | - | 163 W/m² | - |
* Rain latest hour (hover to see other rain measurements)
** Current wind speed in m/s (hover to see current wind gust speed)